San Mateo, CA (94403)

12:04 AM PDT on September 22, 2014 (GMT -0700)
Lauriedale | Change Station
CLOSE
Current Station
Personal Weather Station
Location: San Mateo, CA
Elevation: 30 ft
Nearby Weather Stations

Elev 30 ft 37.53 °N, 122.29 °W | Updated 10 seconds ago

Overcast
Overcast
65.5 °F
Feels Like 65.5 °F
N
0.0
Wind Variable Wind from West
Gusts 0.4 mph

Today
High -- | Low -- °F
--% Chance of Precip.
Yesterday
High -- | Low -- °F
Precip. -- in
6:57 AM 7:05 PM
Waning Crescent, 4% visible
Pressure 30.02 in
Visibility 10.0 miles
Clouds Overcast 1900 ft
Dew Point 55 °F
Humidity 69%
Rainfall 0.00 in
Snow Depth Not available.
UV 0 out of 12
Pollen 3.80 out of 12
PM2.5 Good
Flu Activity Not available.
METAR KSQL 220650Z AUTO 27003KT 10SM OVC019 18/15 A3002 RMK AO2

More Conditions Fewer Conditions

Pressure 30.02 in
Visibility 10.0 miles
Clouds Overcast 1900 ft
Dew Point 55 °F
Humidity 69%
Rainfall 0.00 in
Snow Depth Not available.
UV 0 out of 12
Pollen 3.80 out of 12
PM2.5 Good
Flu Activity Not available.
METAR KSQL 220650Z AUTO 27003KT 10SM OVC019 18/15 A3002 RMK AO2

More Conditions Fewer Conditions

10-Day Weather Forecast

Almanac

Astronomy

Sep. 22, 2014 Rise Set
Actual Time 6:57 AM PDT 7:05 PM PDT
Civil Twilight 6:31 AM PDT 7:32 PM PDT
Nautical Twilight 6:00 AM PDT 8:02 PM PDT
Astronomical Twilight 5:29 AM PDT 8:33 PM PDT
Moon 5:31 AM PDT 6:15 PM PDT
Length of Visible Light 13h 01m
Length of Day
12h 08m
Tomorrow will be 2m 23s shorter.
Waning Crescent, 4% of the Moon is Illuminated
Today
Waning Crescent
Sep 24
New
Oct 1
First Quarter
Oct 8
Full
Oct 15
Last Quarter

Community

WunderPhotos

Upload Photos

1,755,392 photos uploaded!

Nearby

Air Quality

  Air Quality AQ Index Pollutant
Yesterday Good
PM2.5
Yesterday Good
OZONE
Current Good
PM2.5
Sunday Moderate
PM2.5
Monday Good
PM2.5
Tuesday Good
PM2.5
Wednesday Good
OZONE
Thursday Good
OZONE
Friday Good
OZONE

Snow Depth

Station Depth Elevation
Spratt Creek 1 in 6200 ft
Adin Mountain 0 in 6200 ft
Forestdale Creek 0 in 8029 ft
Leavitt Lake 1 in 9400 ft
Leavitt Meadows 1 in 7200 ft

Earthquake Activity

City Distance Mag. Time & Date
Sonoma, California 55 miles 2.7 1:17 PM PDT
2014-09-21
Cloverdale, California 94 miles 2.5 9:15 PM PDT
2014-09-20
Livermore, California 32 miles 2.6 3:37 AM PDT
2014-09-19
Minimum magnitude displayed is 2.5.

Coastal Water Temperatures

Place Temperature
No Stations Reporting

Nearby Weather Stations